Youngstown, Indiana
Current Conditions -  °F | °C
As of 6:53 AM on Friday 28 Nov 2014 (Local Time) from KHUF Reporting Station
Overcast Overcast  
Wind Chill: 16°   Ceiling: 6500
Heat Index: 22°   Visibility: 10mi
Dew Point: 16°   Wind: 5mph
Humidity: 78%   Direction: 190°S
Pressure: 30.39"   Gusts: NA
Location:  39.3587°N, 87.4056°W
Report Text: KHUF 281153Z 19004KT 10SM BKN065 OVC080 M06/M09 A3039 RMK AO2 SLP298 T10561089 11056 21089 56012
Loading
Personal Weather Stations






























Interactive Weather Map New forecast layout! Learn more

10-Day Weather Forecast

Advertisements
Track Severe Weather on mobile